< < Back
Terminal Aerodrome Forecast


Current Version              Previous Versions:   1  2  3  4  5  6  7  8  9  

Terminal Aerodrome Forecast

058
FTUS44 KMRX 212320
TAFCHA
TAF
KCHA 212320Z 2200/2224 VRB03KT P6SM SCT140
     FM221400 16007KT P6SM SCT040 SCT150=

Latest METAR

106
SAUS80 KWBC 221400
MTRCHA
METAR KCHA 221353Z 00000KT 10SM FEW080 SCT150 BKN250 02/M01 A3046 RMK
AO2 SLP319 T00171011


USA.gov is the U.S. government's official web portal to all federal, state and local government web resources and services.